This is the latest recevied weather packets stored in our database for station/object LZ2SMX-2. If no packets are shown the sender has not sent any weather packets the latest 1 day(s).
| Time | Temp. | Humidity | Pressure | Rain* | Wind** | Luminosity | Snow |
|---|---|---|---|---|---|---|---|
| 1777979589 | 20° C | 42% | 989 hPa | 0 mm | 1.34 m/s, 112° | - | - |
| 1777978389 | 18.89° C | 43% | 990 hPa | 0 mm | 1.79 m/s, 112° | - | - |
| 1777977188 | 20° C | 40% | 989 hPa | 0 mm | 2.24 m/s, 135° | - | - |
| 1777975988 | 20.56° C | 38% | 989 hPa | 0 mm | 1.79 m/s, 135° | - | - |
| 1777974788 | 21.67° C | 38% | 990 hPa | 0 mm | 1.79 m/s, 135° | - | - |
| 1777973588 | 21.67° C | 36% | 989 hPa | 0 mm | 0.45 m/s, 112° | - | - |
| 1777971189 | 21.67° C | 38% | 990 hPa | 0 mm | 0.89 m/s, 112° | - | - |
| 1777969990 | 20.56° C | 36% | 990 hPa | 0 mm | 0 m/s | - | - |
| 1777968789 | 20.56° C | 36% | 990 hPa | 0 mm | 0.45 m/s, 112° | - | - |
| 1777967589 | 20.56° C | 36% | 991 hPa | 0 mm | 0.45 m/s, 67° | - | - |
| 1777966388 | 20° C | 38% | 991 hPa | 0 mm | 0 m/s | - | - |
| 1777965188 | 20° C | 37% | 990 hPa | 0 mm | 0 m/s | - | - |
| 1777963988 | 18.89° C | 39% | 990 hPa | 0 mm | 0 m/s | - | - |
| 1777962788 | 17.78° C | 41% | 990 hPa | 0 mm | 0 m/s | - | - |
| 1777961589 | 16.67° C | 44% | 990 hPa | 0 mm | 0 m/s | - | - |
| 1777960388 | 16.67° C | 48% | 990 hPa | 0 mm | 0 m/s | - | - |
| 1777959189 | 15.56° C | 50% | 990 hPa | 0 mm | 0 m/s | - | - |
| 1777957988 | 13.89° C | 52% | 990 hPa | 0 mm | 0 m/s | - | - |
| 1777956789 | 12.78° C | 52% | 990 hPa | 0 mm | 0.45 m/s, 337° | - | - |
| 1777955588 | 11.67° C | 54% | 990 hPa | 0 mm | 0.89 m/s, 337° | - | - |
| 1777954389 | 11.67° C | 55% | 990 hPa | 0 mm | 0.45 m/s, 337° | - | - |
| 1777953189 | 10.56° C | 54% | 989 hPa | 0 mm | 0.45 m/s, 337° | - | - |
| 1777951989 | 10° C | 56% | 990 hPa | 0 mm | 0.45 m/s, 337° | - | - |
| 1777950789 | 8.89° C | 59% | 990 hPa | 0 mm | 0.45 m/s, 315° | - | - |
| 1777949589 | 7.78° C | 60% | 990 hPa | 0 mm | 0 m/s | - | - |
* Rain latest hour (hover to see other rain measurements)
** Current wind speed in m/s (hover to see current wind gust speed)